Randolph, Massachusetts
Current Conditions -  °F | °C
As of 10:53 PM on Sunday 23 Nov 2014 (Local Time) from KOWD Reporting Station
Clear Clear  
Wind Chill: 31°   Ceiling: Unl
Heat Index: 36°   Visibility: 10mi
Dew Point: 34°   Wind: 6mph
Humidity: 93%   Direction: 180°S
Pressure: 30.12"   Gusts: NA
Location:  42.16°N, 71.04°W
Report Text: KOWD 240353Z AUTO 18005KT 10SM CLR 02/01 A3012 RMK AO2 SLP199 T00220011
Loading
Personal Weather Stations






























Interactive Weather Map New forecast layout! Learn more

10-Day Weather Forecast

Advertisements
Track Severe Weather on mobile